Time;durP1;ratioP1;P1;durP2;ratioP2;P2;SDS_P1;SDS_P2;PMS_P1;PMS_P2;Temp;Humidity;BMP_temperature;BMP_pressure;BME280_temperature;BME280_humidity;BME280_pressure;Samples;Min_cycle;Max_cycle;Signal;HPM_P1;HPM_P2
2021/03/24 00:01:20;;;;;;;57.13;26.40;;;;;;;5.06;74.63;102519.63;4953514;28;124291;-72
2021/03/24 00:03:46;;;;;;;57.30;24.77;;;;;;;5.15;74.55;102517.25;4954766;28;123846;-72
2021/03/24 00:06:13;;;;;;;57.83;25.95;;;;;;;5.17;74.56;102512.09;4955233;28;107842;-72
2021/03/24 00:08:40;;;;;;;57.85;26.20;;;;;;;5.17;74.69;102506.88;4955521;28;110058;-72
2021/03/24 00:11:07;;;;;;;54.60;25.70;;;;;;;5.20;74.61;102513.03;4954435;28;124613;-71
2021/03/24 00:13:34;;;;;;;60.03;27.75;;;;;;;5.00;74.65;102509.06;4954118;28;123780;-72
2021/03/24 00:16:01;;;;;;;57.90;26.08;;;;;;;5.09;74.65;102508.41;4957656;28;107403;-71
2021/03/24 00:18:29;;;;;;;57.97;25.60;;;;;;;5.33;74.37;102503.84;4973559;28;110026;-71
2021/03/24 00:20:55;;;;;;;63.33;28.38;;;;;;;5.37;74.12;102505.66;4973449;28;124324;-71
2021/03/24 00:23:21;;;;;;;55.88;26.05;;;;;;;5.27;74.15;102508.88;4973855;28;124137;-72
2021/03/24 00:25:47;;;;;;;60.67;27.42;;;;;;;5.25;74.22;102503.63;4974090;28;107661;-72
2021/03/24 00:28:15;;;;;;;55.78;26.02;;;;;;;5.28;74.04;102486.34;4973539;28;109811;-71
2021/03/24 00:30:45;;;;;;;59.70;28.27;;;;;;;5.28;74.13;102499.34;4972734;28;124188;-71
2021/03/24 00:33:14;;;;;;;54.55;26.17;;;;;;;5.29;73.98;102493.28;4972975;28;124255;-72
2021/03/24 00:35:41;;;;;;;64.07;28.02;;;;;;;5.33;73.90;102490.81;4974368;28;106286;-72
2021/03/24 00:38:08;;;;;;;61.70;28.42;;;;;;;5.44;73.53;102491.97;4974004;28;110426;-72
2021/03/24 00:40:40;;;;;;;63.83;28.02;;;;;;;5.42;73.71;102493.63;4973750;28;123989;-71
2021/03/24 00:43:07;;;;;;;68.72;29.15;;;;;;;5.37;73.44;102486.56;4972695;28;124270;-71
2021/03/24 00:45:34;;;;;;;69.60;27.73;;;;;;;5.42;73.33;102480.59;4973524;28;107474;-72
2021/03/24 00:48:01;;;;;;;57.38;28.48;;;;;;;5.46;73.19;102478.97;4973352;28;109904;-71
2021/03/24 00:50:30;;;;;;;64.78;27.90;;;;;;;5.48;73.04;102487.69;4973263;28;124115;-72
2021/03/24 00:52:56;;;;;;;65.72;30.88;;;;;;;5.46;73.02;102485.06;4973254;28;124154;-72
2021/03/24 00:55:22;;;;;;;65.82;28.10;;;;;;;5.38;73.16;102483.13;4973617;28;107084;-71
2021/03/24 00:57:48;;;;;;;80.75;31.30;;;;;;;5.38;73.17;102475.31;4973768;28;110118;-71
2021/03/24 01:00:23;;;;;;;68.00;30.05;;;;;;;5.36;73.24;102475.28;4973533;28;123679;-72
2021/03/24 01:02:49;;;;;;;71.18;29.85;;;;;;;5.50;72.90;102480.81;4973139;28;123875;-71
2021/03/24 01:05:17;;;;;;;70.68;30.98;;;;;;;5.44;72.91;102476.34;4972991;28;107831;-71
2021/03/24 01:07:46;;;;;;;69.53;29.15;;;;;;;5.42;72.94;102475.41;4973349;28;109992;-71
2021/03/24 01:10:15;;;;;;;74.68;29.75;;;;;;;5.47;72.79;102465.13;4971859;28;123685;-71
2021/03/24 01:12:41;;;;;;;68.78;29.70;;;;;;;5.45;72.72;102472.00;4972987;28;123932;-72
2021/03/24 01:15:08;;;;;;;76.80;30.70;;;;;;;5.45;72.51;102472.00;4974182;28;107806;-72
2021/03/24 01:17:34;;;;;;;75.13;31.10;;;;;;;5.38;72.80;102470.09;4955531;28;109826;-72
2021/03/24 01:20:00;;;;;;;66.20;29.25;;;;;;;5.34;72.84;102463.06;4951975;28;122885;-71
2021/03/24 01:22:26;;;;;;;70.10;30.42;;;;;;;5.28;72.82;102463.78;4952456;28;124219;-72
2021/03/24 01:24:53;;;;;;;62.90;28.70;;;;;;;5.12;73.15;102464.25;4953629;28;107443;-71
2021/03/24 01:27:20;;;;;;;75.43;30.70;;;;;;;5.07;73.43;102479.75;4952040;28;109468;-72
2021/03/24 01:29:46;;;;;;;71.50;29.85;;;;;;;5.07;73.41;102468.47;4952910;28;124707;-72
2021/03/24 01:32:12;;;;;;;70.93;30.00;;;;;;;4.93;73.70;102466.38;4953437;28;124448;-72
2021/03/24 01:34:38;;;;;;;74.20;32.08;;;;;;;5.08;73.60;102471.09;4953769;28;107900;-72
2021/03/24 01:37:04;;;;;;;76.32;30.90;;;;;;;5.08;73.39;102467.63;4953725;28;110317;-71
2021/03/24 01:39:30;;;;;;;69.85;30.77;;;;;;;5.13;73.37;102469.50;4953413;28;123938;-71
2021/03/24 01:41:56;;;;;;;73.53;31.88;;;;;;;5.05;73.42;102468.41;4952806;28;124382;-71
2021/03/24 01:44:22;;;;;;;75.40;30.77;;;;;;;5.12;73.11;102461.66;4953063;28;109538;-71
2021/03/24 01:46:48;;;;;;;66.43;28.80;;;;;;;5.05;73.26;102470.16;4953107;28;110672;-71
2021/03/24 01:49:20;;;;;;;73.68;31.25;;;;;;;4.94;73.46;102470.75;4951743;28;124129;-71
2021/03/24 01:51:49;;;;;;;70.95;30.35;;;;;;;5.03;73.18;102471.84;4952664;28;124000;-71
2021/03/24 01:54:20;;;;;;;76.93;30.77;;;;;;;4.95;73.38;102472.50;4953286;28;110138;-71
2021/03/24 01:56:48;;;;;;;70.95;31.70;;;;;;;5.01;73.16;102469.19;4953030;28;110001;-71
2021/03/24 01:59:15;;;;;;;71.47;30.83;;;;;;;4.97;73.30;102465.63;4952715;28;124797;-71
2021/03/24 02:01:42;;;;;;;75.95;31.70;;;;;;;5.00;73.15;102461.34;4953017;28;123780;-71
2021/03/24 02:04:08;;;;;;;73.97;31.70;;;;;;;5.02;73.08;102462.28;4952712;28;109204;-71
2021/03/24 02:06:41;;;;;;;71.00;31.27;;;;;;;5.04;72.89;102453.66;4952529;28;109863;-71
2021/03/24 02:09:35;;;;;;;72.63;31.63;;;;;;;5.11;72.67;102454.69;4952078;28;124500;-71
2021/03/24 02:12:11;;;;;;;74.72;32.85;;;;;;;5.11;72.55;102452.97;4944755;28;123490;-71
2021/03/24 02:14:50;;;;;;;77.72;31.17;;;;;;;5.13;72.55;102447.81;4952734;28;109291;-71
2021/03/24 02:17:18;;;;;;;77.57;31.10;;;;;;;5.08;72.57;102437.28;4966203;28;110028;-71
2021/03/24 02:19:47;;;;;;;78.35;31.58;;;;;;;5.05;72.59;102444.13;4969999;28;123914;-70
2021/03/24 02:22:18;;;;;;;73.10;31.33;;;;;;;5.01;72.54;102439.72;4971763;28;123955;-71
2021/03/24 02:25:12;;;;;;;88.45;33.42;;;;;;;4.97;72.58;102431.81;4974607;28;109081;-71
2021/03/24 02:27:48;;;;;;;73.80;32.35;;;;;;;4.95;72.80;102433.50;4974301;28;108861;-71
2021/03/24 02:30:22;;;;;;;80.68;33.15;;;;;;;4.86;72.88;102435.84;4974780;28;124672;-71
2021/03/24 02:32:52;;;;;;;79.30;33.70;;;;;;;4.90;72.92;102429.03;4975232;28;123877;-71
2021/03/24 02:35:26;;;;;;;75.20;32.20;;;;;;;4.83;72.92;102438.38;4975995;28;109475;-71
2021/03/24 02:37:55;;;;;;;84.22;33.67;;;;;;;4.80;73.14;102440.03;4975169;28;109878;-71
2021/03/24 02:40:22;;;;;;;73.28;31.52;;;;;;;4.88;72.86;102428.13;4974953;28;124085;-71
2021/03/24 02:42:51;;;;;;;80.68;32.85;;;;;;;4.80;72.98;102432.22;4974289;28;123803;-70
2021/03/24 02:45:23;;;;;;;74.28;32.78;;;;;;;4.77;73.00;102430.44;4973734;28;109001;-71
2021/03/24 02:47:51;;;;;;;82.63;33.33;;;;;;;4.80;72.84;102432.22;4966283;28;110185;-71
2021/03/24 02:50:19;;;;;;;75.22;31.33;;;;;;;4.76;72.97;102431.28;4946347;28;124799;-71
2021/03/24 02:52:46;;;;;;;77.80;32.90;;;;;;;4.69;73.20;102429.34;4944954;28;123998;-71
2021/03/24 02:55:15;;;;;;;76.45;33.35;;;;;;;4.62;73.40;102432.63;4949928;28;110278;-71
2021/03/24 02:57:42;;;;;;;80.05;33.65;;;;;;;4.63;73.37;102431.78;4954872;28;110535;-71
2021/03/24 03:00:13;;;;;;;74.03;32.47;;;;;;;4.54;73.39;102424.63;4955084;28;124178;-71
2021/03/24 03:02:42;;;;;;;77.60;32.75;;;;;;;4.54;73.75;102434.16;4955432;28;123479;-71
2021/03/24 03:05:13;;;;;;;73.20;33.53;;;;;;;4.49;73.67;102433.13;4954630;28;108043;-71
2021/03/24 03:07:51;;;;;;;78.55;32.80;;;;;;;4.47;73.73;102424.44;4955438;28;109875;-72
2021/03/24 03:10:23;;;;;;;69.15;29.95;;;;;;;4.49;73.68;102423.63;4955173;28;124259;-71
2021/03/24 03:13:14;;;;;;;82.95;32.47;;;;;;;4.41;73.66;102425.13;4954697;28;123727;-72
2021/03/24 03:15:45;;;;;;;78.07;32.53;;;;;;;4.37;73.82;102425.88;4956050;28;109013;-72
2021/03/24 03:18:21;;;;;;;74.57;33.22;;;;;;;4.30;73.97;102429.16;4974989;28;110560;-72
2021/03/24 03:20:53;;;;;;;76.55;32.45;;;;;;;4.31;74.13;102431.81;4974371;28;123933;-72
2021/03/24 03:23:22;;;;;;;75.90;31.98;;;;;;;4.13;74.42;102428.69;4974161;28;124631;-73
2021/03/24 03:26:07;;;;;;;71.05;30.58;;;;;;;4.12;74.46;102426.06;4974158;28;108995;-72
2021/03/24 03:28:36;;;;;;;81.88;32.70;;;;;;;3.92;74.92;102421.16;4974186;28;110250;-71
2021/03/24 03:31:05;;;;;;;77.93;33.80;;;;;;;3.90;75.13;102419.38;4973678;28;124337;-71
2021/03/24 03:33:37;;;;;;;74.72;31.38;;;;;;;3.83;75.28;102420.00;4974179;28;123816;-71
2021/03/24 03:36:03;;;;;;;75.40;32.50;;;;;;;3.71;75.41;102426.59;4974454;28;110176;-71
2021/03/24 03:38:32;;;;;;;74.88;32.53;;;;;;;3.67;75.61;102421.28;4973142;28;108893;-71
2021/03/24 03:41:00;;;;;;;71.03;32.17;;;;;;;3.61;75.93;102416.75;4974292;28;124016;-71
2021/03/24 03:43:27;;;;;;;80.15;32.92;;;;;;;3.50;75.96;102411.25;4973493;28;122981;-71
2021/03/24 03:45:56;;;;;;;81.55;31.40;;;;;;;3.56;76.23;102412.28;4974477;28;109360;-71
2021/03/24 03:48:22;;;;;;;76.18;32.75;;;;;;;3.52;76.08;102421.72;4973830;28;110173;-71
2021/03/24 03:50:55;;;;;;;76.55;32.72;;;;;;;3.48;76.40;102412.03;4958294;28;123992;-71
2021/03/24 03:53:25;;;;;;;75.68;33.38;;;;;;;3.45;76.61;102415.44;4953821;28;123886;-70
2021/03/24 03:55:54;;;;;;;74.80;32.17;;;;;;;3.41;76.44;102411.00;4953093;28;109011;-71
2021/03/24 03:58:47;;;;;;;67.93;31.35;;;;;;;3.47;76.50;102415.47;4955098;28;109929;-70
2021/03/24 04:01:22;;;;;;;74.50;32.40;;;;;;;3.50;76.46;102412.97;4954155;28;123999;-71
2021/03/24 04:04:03;;;;;;;80.88;32.75;;;;;;;3.59;76.33;102417.56;4954001;28;124796;-70
2021/03/24 04:06:37;;;;;;;80.22;33.20;;;;;;;3.67;76.24;102406.59;4950907;28;109054;-71
2021/03/24 04:09:03;;;;;;;;;;;;;;;3.64;76.12;102408.22;4954609;28;110134;-71
2021/03/24 04:11:35;;;;;;;75.43;34.40;;;;;;;3.59;76.14;102410.66;4952347;28;124428;-71
2021/03/24 04:14:04;;;;;;;79.32;33.58;;;;;;;3.54;76.07;102414.84;4954134;28;124476;-71
2021/03/24 04:16:30;;;;;;;76.30;32.40;;;;;;;3.53;76.43;102413.09;4961749;28;109490;-71
2021/03/24 04:19:03;;;;;;;74.68;31.55;;;;;;;3.56;76.37;102410.56;4973935;28;110337;-71
2021/03/24 04:21:32;;;;;;;76.80;32.27;;;;;;;3.38;76.41;102410.88;4956898;28;123956;-71
2021/03/24 04:24:02;;;;;;;78.00;33.67;;;;;;;3.48;76.40;102409.44;4953003;28;123958;-71
2021/03/24 04:26:34;;;;;;;77.45;32.05;;;;;;;3.52;76.26;102398.34;4951797;28;110107;-70
2021/03/24 04:29:07;;;;;;;78.78;32.45;;;;;;;3.47;76.39;102407.69;4951421;28;109892;-71
2021/03/24 04:31:48;;;;;;;77.00;33.80;;;;;;;3.45;76.37;102409.38;4951415;28;122891;-71
2021/03/24 04:34:15;;;;;;;71.70;31.25;;;;;;;3.43;76.54;102414.50;4949060;28;123577;-71
2021/03/24 04:36:48;;;;;;;81.97;31.92;;;;;;;3.49;76.51;102412.09;4953313;28;109481;-71
2021/03/24 04:39:44;;;;;;;77.88;32.72;;;;;;;3.34;76.65;102423.72;4951278;28;109919;-71
2021/03/24 04:42:35;;;;;;;68.38;30.85;;;;;;;3.37;76.89;102421.22;4952522;28;124180;-71
2021/03/24 04:45:13;;;;;;;69.55;31.38;;;;;;;3.39;76.68;102417.81;4953296;28;123893;-71
2021/03/24 04:47:42;;;;;;;76.47;31.52;;;;;;;3.25;76.85;102413.03;4953091;28;109192;-71
2021/03/24 04:50:37;;;;;;;70.75;31.20;;;;;;;3.31;76.86;102408.06;4954028;28;110213;-71
2021/03/24 04:53:05;;;;;;;72.57;32.47;;;;;;;3.31;76.84;102414.13;4951266;28;124067;-72
2021/03/24 04:55:32;;;;;;;80.05;32.30;;;;;;;3.25;76.95;102413.03;4952985;28;124615;-72
2021/03/24 04:58:01;;;;;;;70.25;31.80;;;;;;;3.19;76.95;102413.75;4953416;28;109197;-71
2021/03/24 05:00:33;;;;;;;75.75;32.47;;;;;;;3.14;77.22;102411.00;4953767;28;109841;-71
2021/03/24 05:03:07;;;;;;;73.40;31.98;;;;;;;3.10;77.02;102414.31;4953728;28;124433;-72
2021/03/24 05:05:38;;;;;;;80.70;33.33;;;;;;;3.03;77.39;102416.66;4952584;28;124001;-71
2021/03/24 05:08:32;;;;;;;86.43;32.90;;;;;;;2.92;77.56;102419.78;4953961;28;109465;-71
2021/03/24 05:11:03;;;;;;;75.43;33.65;;;;;;;2.95;77.77;102423.34;4954233;28;110459;-71
2021/03/24 05:14:02;;;;;;;75.75;31.73;;;;;;;2.99;77.66;102415.69;4952508;28;124773;-72
2021/03/24 05:16:39;;;;;;;71.70;30.90;;;;;;;2.95;77.62;102418.16;4959998;28;123833;-72
2021/03/24 05:19:06;;;;;;;74.53;33.05;;;;;;;2.93;77.72;102418.06;4971648;28;110748;-71
2021/03/24 05:21:46;;;;;;;70.65;31.67;;;;;;;2.99;77.64;102414.81;4972761;28;110281;-71
2021/03/24 05:24:15;;;;;;;78.70;34.25;;;;;;;2.98;77.71;102423.41;4972473;28;123976;-71
2021/03/24 05:26:47;;;;;;;78.63;32.70;;;;;;;3.06;77.61;102421.94;4972284;28;123866;-71
2021/03/24 05:29:19;;;;;;;85.70;33.50;;;;;;;2.98;77.50;102415.66;4973296;28;109225;-72
2021/03/24 05:31:48;;;;;;;82.45;33.80;;;;;;;3.03;77.79;102414.06;4972784;28;110378;-72
2021/03/24 05:34:24;;;;;;;79.53;32.92;;;;;;;2.99;77.44;102413.09;4972634;28;124303;-71
2021/03/24 05:36:51;;;;;;;76.00;31.85;;;;;;;2.91;77.77;102422.31;4972524;28;124622;-72
2021/03/24 05:39:18;;;;;;;77.38;33.38;;;;;;;2.92;77.69;102416.31;4972684;28;109404;-71
2021/03/24 05:41:46;;;;;;;71.05;31.63;;;;;;;2.87;77.95;102425.66;4972156;28;110125;-71
2021/03/24 05:44:49;;;;;;;77.50;32.67;;;;;;;3.04;78.05;102421.88;4971453;28;124255;-72
2021/03/24 05:47:34;;;;;;;86.55;34.67;;;;;;;2.99;77.68;102422.59;4971726;28;123799;-71
2021/03/24 05:50:28;;;;;;;79.32;32.85;;;;;;;3.02;77.69;102413.19;4970514;28;111129;-72
2021/03/24 05:53:34;;;;;;;74.03;32.17;;;;;;;2.86;78.08;102432.56;4972953;28;112088;-71
2021/03/24 05:56:50;;;;;;;83.88;31.98;;;;;;;2.76;78.37;102432.19;4976358;28;125948;-71
2021/03/24 05:59:24;;;;;;;76.70;32.60;;;;;;;2.63;78.46;102430.91;4974031;28;124000;-71
2021/03/24 06:02:01;;;;;;;;;;;;;;;2.65;78.87;102443.91;4978280;28;108966;-71
2021/03/24 06:04:44;;;;;;;83.40;32.55;;;;;;;2.56;78.49;102437.56;4976762;28;109415;-72
2021/03/24 06:07:22;;;;;;;89.33;33.40;;;;;;;2.48;78.66;102445.88;4975063;28;124377;-72
2021/03/24 06:10:19;;;;;;;70.82;32.10;;;;;;;2.38;78.75;102434.34;4960758;28;126281;-72
2021/03/24 06:13:18;;;;;;;79.18;31.10;;;;;;;2.18;78.64;102445.69;4945246;28;110281;-72
2021/03/24 06:15:56;;;;;;;79.90;31.75;;;;;;;2.23;79.39;102442.44;4949132;28;111562;-72
2021/03/24 06:18:38;;;;;;;74.88;30.42;;;;;;;1.90;80.18;102436.88;4951415;28;126965;-72
2021/03/24 06:21:19;;;;;;;69.45;30.08;;;;;;;1.91;80.43;102433.47;4954388;28;126535;-72
2021/03/24 06:24:18;;;;;;;81.22;34.08;;;;;;;2.02;80.72;102432.16;4955121;28;109396;-72
2021/03/24 06:27:19;;;;;;;70.40;31.55;;;;;;;1.87;80.12;102429.03;4921146;28;110266;-72
2021/03/24 06:29:47;;;;;;;81.38;32.30;;;;;;;2.11;80.91;102433.34;4941771;28;124031;-70
2021/03/24 06:32:39;;;;;;;69.63;30.50;;;;;;;2.22;80.24;102432.91;4954957;28;124134;-71
2021/03/24 06:35:18;;;;;;;65.53;28.90;;;;;;;2.07;80.61;102439.25;4947867;28;109306;-71
2021/03/24 06:38:03;;;;;;;67.90;30.60;;;;;;;2.45;80.57;102440.59;4954965;28;109826;-72
2021/03/24 06:40:38;;;;;;;67.63;29.77;;;;;;;2.58;79.86;102433.31;4955415;28;124151;-71
2021/03/24 06:43:24;;;;;;;73.75;31.60;;;;;;;2.68;80.26;102438.81;4955768;28;124296;-72
2021/03/24 06:46:25;;;;;;;70.20;30.48;;;;;;;2.52;80.31;102432.22;4952875;28;109508;-71
2021/03/24 06:48:58;;;;;;;76.60;33.50;;;;;;;2.98;79.92;102424.31;4946955;28;110534;-71
2021/03/24 06:51:33;;;;;;;77.38;31.83;;;;;;;3.15;79.56;102425.72;4944659;28;124555;-71
2021/03/24 06:54:23;;;;;;;78.45;34.03;;;;;;;3.52;79.25;102421.72;4948962;28;122773;-72
2021/03/24 06:57:17;;;;;;;90.93;35.90;;;;;;;3.83;78.54;102414.81;4948229;28;109553;-71
2021/03/24 07:00:04;;;;;;;92.75;36.10;;;;;;;4.08;77.24;102418.19;4955405;28;110688;-71
2021/03/24 07:02:49;;;;;;;92.32;37.00;;;;;;;4.31;77.02;102410.16;4953118;28;125978;-71
2021/03/24 07:05:39;;;;;;;86.43;35.05;;;;;;;4.42;76.43;102411.31;4952547;28;124751;-72
2021/03/24 07:08:14;;;;;;;90.10;33.85;;;;;;;4.47;76.27;102414.91;4947253;28;110190;-71
2021/03/24 07:10:58;;;;;;;86.45;34.05;;;;;;;4.63;75.74;102403.19;4945767;28;110057;-71
2021/03/24 07:13:49;;;;;;;88.60;35.22;;;;;;;4.72;75.39;102412.94;4947681;28;124374;-72
2021/03/24 07:16:24;;;;;;;100.45;38.35;;;;;;;4.87;74.93;102409.03;4959711;28;124138;-72
2021/03/24 07:18:53;;;;;;;84.70;32.40;;;;;;;4.96;74.72;102411.84;4947342;28;109431;-71
2021/03/24 07:21:47;;;;;;;77.85;31.27;;;;;;;5.08;74.41;102412.97;4942452;28;109898;-72
2021/03/24 07:24:32;;;;;;;81.13;30.48;;;;;;;-143.23;100.00;60835.56;4944950;28;124149;-72
2021/03/24 07:27:26;;;;;;;76.68;29.98;;;;;;;5.29;nan;102416.09;4944964;28;126257;-72
2021/03/24 07:30:17;;;;;;;73.97;31.33;;;;;;;5.42;nan;102420.72;4951163;28;109274;-72
2021/03/24 07:33:09;;;;;;;71.75;29.50;;;;;;;5.49;nan;102425.25;4954012;28;110036;-72
2021/03/24 07:36:08;;;;;;;75.05;29.02;;;;;;;5.60;nan;102414.19;4952809;28;124648;-71
2021/03/24 07:39:10;;;;;;;81.47;30.27;;;;;;;5.73;nan;102411.88;4954069;28;123883;-71
2021/03/24 07:41:56;;;;;;;77.97;30.08;;;;;;;5.91;nan;102421.88;4954813;28;109075;-71
2021/03/24 07:44:36;;;;;;;75.50;28.50;;;;;;;5.92;nan;102420.13;4947700;28;110215;-72
2021/03/24 07:47:21;;;;;;;66.22;28.48;;;;;;;6.12;nan;102411.00;4945503;28;124285;-72
2021/03/24 07:50:15;;;;;;;71.68;27.88;;;;;;;6.19;nan;102406.78;4951035;28;123795;-71
2021/03/24 07:52:49;;;;;;;73.53;29.20;;;;;;;6.25;nan;102414.72;4947982;28;109279;-73
2021/03/24 07:55:23;;;;;;;74.35;28.55;;;;;;;6.33;nan;102410.53;4953942;28;110411;-73
2021/03/24 07:58:13;;;;;;;74.10;29.52;;;;;;;6.52;nan;102407.41;4954333;28;124872;-72
2021/03/24 08:00:55;;;;;;;70.57;27.25;;;;;;;6.51;nan;102407.38;4954327;28;124215;-73
2021/03/24 08:03:41;;;;;;;69.80;28.27;;;;;;;6.59;nan;102408.41;4953346;28;110768;-73
2021/03/24 08:06:07;;;;;;;68.43;27.92;;;;;;;6.74;nan;102405.19;4950362;28;110105;-72
2021/03/24 08:09:21;;;;;;;62.08;27.13;;;;;;;6.87;nan;102402.81;4942650;28;124423;-73
2021/03/24 08:12:20;;;;;;;70.00;30.10;;;;;;;7.05;nan;102402.25;4929647;28;123860;-72
2021/03/24 08:15:20;;;;;;;64.28;27.33;;;;;;;7.14;nan;102391.97;4945680;28;108970;-73
2021/03/24 08:17:55;;;;;;;62.20;28.52;;;;;;;7.30;nan;102393.94;4910644;28;110594;-72
2021/03/24 08:20:28;;;;;;;67.18;29.25;;;;;;;7.37;nan;102391.44;4950830;28;123897;-73
2021/03/24 08:23:00;;;;;;;73.90;30.00;;;;;;;7.35;nan;102387.88;4940435;28;124347;-73
2021/03/24 08:25:56;;;;;;;71.50;28.65;;;;;;;7.70;nan;102394.50;4936800;28;109992;-72
2021/03/24 08:28:59;;;;;;;71.93;27.00;;;;;;;7.81;nan;102390.28;4951557;28;110294;-72
2021/03/24 08:31:53;;;;;;;64.47;27.73;;;;;;;7.83;nan;102401.63;4951346;28;124753;-73
2021/03/24 08:34:28;;;;;;;75.53;28.23;;;;;;;7.77;nan;102398.94;4950605;28;124310;-73
2021/03/24 08:37:06;;;;;;;50.25;22.05;;;;;;;7.62;nan;102409.19;4949463;28;109068;-73
2021/03/24 08:40:02;;;;;;;67.28;26.83;;;;;;;7.76;nan;102401.53;4951184;28;110008;-72
2021/03/24 08:43:02;;;;;;;67.72;27.70;;;;;;;7.85;nan;102407.75;4951076;28;124133;-72
2021/03/24 08:45:37;;;;;;;66.70;25.98;;;;;;;8.11;nan;102401.97;4938211;28;124412;-72
2021/03/24 08:48:30;;;;;;;56.22;25.73;;;;;;;8.45;nan;102401.50;4942147;28;109117;-72
2021/03/24 08:51:07;;;;;;;53.70;20.23;;;;;;;7.91;nan;102400.84;4941778;28;110199;-70
2021/03/24 08:54:02;;;;;;;52.50;22.55;;;;;;;8.58;nan;102396.38;4931167;28;125046;-72
2021/03/24 08:56:50;;;;;;;68.15;25.40;;;;;;;9.05;nan;102400.28;4931355;28;124350;-72
2021/03/24 08:59:34;;;;;;;60.47;21.98;;;;;;;8.93;nan;102401.94;4931466;28;110988;-72
2021/03/24 09:02:27;;;;;;;63.42;24.92;;;;;;;8.54;nan;102399.84;4931909;28;111852;-72
2021/03/24 09:05:22;;;;;;;59.75;22.48;;;;;;;9.11;nan;102395.97;4932995;28;124098;-72
2021/03/24 09:08:19;;;;;;;59.35;23.25;;;;;;;9.25;nan;102403.06;4928853;28;122752;-72
2021/03/24 09:11:01;;;;;;;60.10;24.65;;;;;;;8.85;nan;102407.13;4945538;28;109087;-72
2021/03/24 09:13:34;;;;;;;67.47;24.23;;;;;;;8.79;nan;102407.06;4942851;28;110007;-72
2021/03/24 09:16:36;;;;;;;57.80;22.50;;;;;;;8.62;nan;102411.28;4949599;28;124128;-72
2021/03/24 09:19:22;;;;;;;68.30;24.13;;;;;;;9.18;nan;102403.91;4939522;28;124710;-73
2021/03/24 09:22:14;;;;;;;55.70;22.55;;;;;;;9.42;nan;102400.56;4931961;28;109104;-72
2021/03/24 09:25:16;;;;;;;57.88;25.10;;;;;;;9.88;nan;102400.81;4938572;28;110034;-72
2021/03/24 09:28:07;;;;;;;63.58;24.35;;;;;;;9.75;nan;102402.50;4930942;28;124526;-72
2021/03/24 09:31:09;;;;;;;52.28;20.73;;;;;;;9.36;nan;102400.53;4930889;28;123889;-72
2021/03/24 09:33:56;;;;;;;55.45;23.65;;;;;;;9.60;nan;102400.66;4942022;28;109140;-72
2021/03/24 09:36:48;;;;;;;59.60;22.05;;;;;;;9.71;nan;102397.22;4943139;28;109877;-72
2021/03/24 09:39:17;;;;;;;66.68;23.15;;;;;;;9.91;nan;102395.56;4948922;28;124070;-71
2021/03/24 09:41:51;;;;;;;59.78;22.88;;;;;;;10.02;nan;102406.09;4950194;28;123147;-72
2021/03/24 09:44:24;;;;;;;53.53;21.08;;;;;;;9.69;nan;102393.72;4949293;28;111638;-71
2021/03/24 09:46:53;;;;;;;61.88;23.42;;;;;;;10.12;nan;102393.03;4934632;28;110470;-72
2021/03/24 09:49:33;;;;;;;60.50;24.10;;;;;;;10.35;nan;102389.63;4950302;28;124502;-72
2021/03/24 09:52:24;;;;;;;62.60;23.45;;;;;;;10.37;nan;102385.25;4949877;28;123042;-72
2021/03/24 09:55:06;;;;;;;57.30;24.00;;;;;;;10.67;nan;102382.69;4948173;28;109978;-71
2021/03/24 09:57:58;;;;;;;41.63;16.23;;;;;;;9.70;nan;102391.09;4931857;28;110007;-72
2021/03/24 10:00:27;;;;;;;52.55;21.00;;;;;;;9.80;nan;102389.41;4921861;28;124279;-71
2021/03/24 10:03:02;;;;;;;44.55;14.82;;;;;;;9.58;nan;102386.69;4930748;28;124684;-71
2021/03/24 10:05:45;;;;;;;50.78;18.35;;;;;;;9.79;nan;102393.78;4938322;28;108089;-72
2021/03/24 10:08:17;;;;;;;54.03;20.80;;;;;;;10.44;nan;102387.91;4933251;28;110380;-72
2021/03/24 10:10:48;;;;;;;43.53;14.57;;;;;;;9.81;nan;102388.53;4948145;28;123816;-72
2021/03/24 10:13:28;;;;;;;56.97;19.55;;;;;;;10.71;nan;102381.81;4957445;28;125083;-72
2021/03/24 10:16:16;;;;;;;36.20;15.18;;;;;;;10.29;nan;102386.97;4944726;28;109427;-72
2021/03/24 10:18:45;;;;;;;49.28;20.05;;;;;;;10.72;nan;102383.56;4969739;28;109956;-72
2021/03/24 10:21:18;;;;;;;49.10;19.20;;;;;;;10.78;nan;102377.44;4969271;28;124543;-73
2021/03/24 10:23:48;;;;;;;49.83;18.63;;;;;;;11.04;nan;102375.69;4969845;28;124050;-73
2021/03/24 10:26:17;;;;;;;52.45;20.20;;;;;;;11.29;nan;102378.25;4955209;28;109074;-72
2021/03/24 10:28:57;;;;;;;50.08;18.45;;;;;;;11.17;nan;102379.16;4949169;28;110427;-73
2021/03/24 10:31:29;;;;;;;52.70;19.42;;;;;;;11.34;nan;102374.75;4950461;28;123648;-73
2021/03/24 10:34:00;;;;;;;30.92;10.90;;;;;;;10.01;nan;102376.38;4949911;28;123663;-71
2021/03/24 10:36:50;;;;;;;19.45;7.63;;;;;;;9.52;nan;102378.81;4946068;28;111274;-70
2021/03/24 10:39:26;;;;;;;44.10;16.67;;;;;;;9.94;nan;102377.22;4949079;28;109425;-72
2021/03/24 10:41:59;;;;;;;46.92;19.13;;;;;;;11.04;nan;102364.28;4950082;28;124735;-70
2021/03/24 10:44:45;;;;;;;25.48;10.73;;;;;;;10.24;nan;102378.25;4951104;28;123841;-71
2021/03/24 10:47:17;;;;;;;20.13;8.13;;;;;;;9.51;nan;102371.81;4948565;28;110943;-71
2021/03/24 10:50:08;;;;;;;33.47;13.02;;;;;;;9.66;nan;102368.38;4941681;28;110397;-73
2021/03/24 10:53:12;;;;;;;40.25;15.10;;;;;;;11.26;nan;102366.00;4932175;28;124101;-70
2021/03/24 10:55:42;;;;;;;43.20;15.55;;;;;;;10.80;nan;102362.56;4934836;28;124516;-70
2021/03/24 10:58:17;;;;;;;22.98;9.35;;;;;;;10.46;nan;102362.53;4936780;28;109355;-72
2021/03/24 11:01:10;;;;;;;42.80;16.45;;;;;;;11.05;nan;102352.91;4940976;28;109451;-77
2021/03/24 11:03:48;;;;;;;46.45;16.30;;;;;;;11.18;nan;102357.25;4930903;28;125576;-71
2021/03/24 11:06:19;;;;;;;44.50;16.67;;;;;;;11.65;nan;102353.63;4941146;28;123973;-72
2021/03/24 11:09:01;;;;;;;34.33;12.82;;;;;;;11.06;nan;102362.53;4948052;28;110960;-71
2021/03/24 11:11:51;;;;;;;39.78;15.55;;;;;;;10.83;nan;102356.44;4949163;28;110310;-71
2021/03/24 11:14:21;;;;;;;32.25;11.10;;;;;;;10.85;nan;102352.91;4951330;28;123893;-71
2021/03/24 11:16:55;;;;;;;30.08;11.52;;;;;;;10.55;nan;102356.44;4944735;28;124234;-71
2021/03/24 11:19:25;;;;;;;48.38;15.23;;;;;;;11.73;nan;102351.84;4948806;28;109522;-71
2021/03/24 11:22:10;;;;;;;44.30;14.63;;;;;;;11.29;nan;102355.47;4950182;28;111442;-71
2021/03/24 11:25:00;;;;;;;47.80;15.68;;;;;;;10.82;nan;102349.44;4949875;28;126353;-71
2021/03/24 11:27:39;;;;;;;29.73;11.23;;;;;;;10.72;nan;102343.28;4950721;28;125339;-71
2021/03/24 11:30:27;;;;;;;36.47;14.95;;;;;;;10.22;nan;102349.38;4952485;28;109471;-71
2021/03/24 11:33:01;;;;;;;22.23;8.75;;;;;;;10.11;nan;102356.31;4932084;28;111446;-70
2021/03/24 11:35:37;;;;;;;24.00;7.22;;;;;;;10.06;nan;102353.66;4931933;28;126450;-71
2021/03/24 11:38:26;;;;;;;41.65;15.80;;;;;;;10.74;nan;102344.16;4933750;28;124350;-70
2021/03/24 11:40:52;;;;;;;35.55;16.25;;;;;;;12.22;nan;102335.81;4936845;28;112591;-71
2021/03/24 11:43:22;;;;;;;43.35;17.55;;;;;;;12.57;nan;102334.69;4947035;28;109702;-71
2021/03/24 11:45:51;;;;;;;42.10;15.13;;;;;;;12.64;nan;102354.84;4949692;28;124294;-70
2021/03/24 11:48:38;;;;;;;37.42;14.00;;;;;;;12.00;nan;102335.06;4948360;28;126487;-71
2021/03/24 11:51:20;;;;;;;39.03;14.82;;;;;;;12.71;nan;102324.94;4952037;28;109741;-71
2021/03/24 11:54:14;;;;;;;40.28;15.35;;;;;;;12.58;nan;102325.94;4951331;28;110943;-70
2021/03/24 11:56:45;;;;;;;26.73;10.35;;;;;;;12.15;nan;102335.00;4941661;28;128072;-71
2021/03/24 11:59:38;;;;;;;32.80;14.65;;;;;;;12.65;nan;102317.09;4929894;28;125333;-71
2021/03/24 12:02:46;;;;;;;39.17;15.00;;;;;;;12.37;nan;102322.59;4943558;28;110368;-71